sensor_id;sensor_type;location;lat;lon;timestamp;P1;durP1;ratioP1;P2;durP2;ratioP2
60257;SDS011;46115;44.484;11.314;2023-09-19T00:01:56;18.45;;;3.17;;
60257;SDS011;46115;44.484;11.314;2023-09-19T00:05:59;21.08;;;3.42;;
60257;SDS011;46115;44.484;11.314;2023-09-19T00:10:02;13.10;;;3.08;;
60257;SDS011;46115;44.484;11.314;2023-09-19T00:14:05;13.15;;;3.13;;
60257;SDS011;46115;44.484;11.314;2023-09-19T00:18:11;14.73;;;3.55;;
60257;SDS011;46115;44.484;11.314;2023-09-19T00:22:16;18.48;;;3.30;;
60257;SDS011;46115;44.484;11.314;2023-09-19T00:26:19;14.65;;;3.10;;
60257;SDS011;46115;44.484;11.314;2023-09-19T00:30:23;13.93;;;3.10;;
60257;SDS011;46115;44.484;11.314;2023-09-19T00:34:27;16.48;;;3.45;;
60257;SDS011;46115;44.484;11.314;2023-09-19T00:38:30;15.27;;;3.13;;
60257;SDS011;46115;44.484;11.314;2023-09-19T00:42:33;14.85;;;3.55;;
60257;SDS011;46115;44.484;11.314;2023-09-19T00:46:38;13.57;;;3.10;;
60257;SDS011;46115;44.484;11.314;2023-09-19T00:50:43;15.02;;;3.28;;
60257;SDS011;46115;44.484;11.314;2023-09-19T00:54:46;16.17;;;3.60;;
60257;SDS011;46115;44.484;11.314;2023-09-19T00:58:48;11.98;;;3.35;;
60257;SDS011;46115;44.484;11.314;2023-09-19T01:02:51;16.52;;;3.40;;
60257;SDS011;46115;44.484;11.314;2023-09-19T01:06:55;14.02;;;3.67;;
60257;SDS011;46115;44.484;11.314;2023-09-19T01:11:00;13.45;;;3.40;;
60257;SDS011;46115;44.484;11.314;2023-09-19T01:15:11;13.23;;;3.65;;
60257;SDS011;46115;44.484;11.314;2023-09-19T01:19:36;16.65;;;3.65;;
60257;SDS011;46115;44.484;11.314;2023-09-19T01:28:53;20.60;;;3.83;;
60257;SDS011;46115;44.484;11.314;2023-09-19T01:33:01;10.73;;;3.38;;
60257;SDS011;46115;44.484;11.314;2023-09-19T01:37:04;18.92;;;3.65;;
60257;SDS011;46115;44.484;11.314;2023-09-19T01:41:08;15.93;;;3.45;;
60257;SDS011;46115;44.484;11.314;2023-09-19T01:45:18;19.88;;;3.78;;
60257;SDS011;46115;44.484;11.314;2023-09-19T01:49:30;17.13;;;3.25;;
60257;SDS011;46115;44.484;11.314;2023-09-19T01:53:43;13.95;;;3.28;;
60257;SDS011;46115;44.484;11.314;2023-09-19T01:57:48;12.60;;;3.38;;
60257;SDS011;46115;44.484;11.314;2023-09-19T02:01:56;16.90;;;3.80;;
60257;SDS011;46115;44.484;11.314;2023-09-19T02:06:01;15.60;;;3.63;;
60257;SDS011;46115;44.484;11.314;2023-09-19T02:10:06;12.50;;;3.60;;
60257;SDS011;46115;44.484;11.314;2023-09-19T02:14:11;21.35;;;3.60;;
60257;SDS011;46115;44.484;11.314;2023-09-19T02:18:13;14.10;;;3.38;;
60257;SDS011;46115;44.484;11.314;2023-09-19T02:22:18;13.73;;;3.10;;
60257;SDS011;46115;44.484;11.314;2023-09-19T02:26:20;13.88;;;3.50;;
60257;SDS011;46115;44.484;11.314;2023-09-19T02:30:25;15.88;;;3.60;;
60257;SDS011;46115;44.484;11.314;2023-09-19T02:34:28;16.48;;;3.42;;
60257;SDS011;46115;44.484;11.314;2023-09-19T02:38:32;14.35;;;3.28;;
60257;SDS011;46115;44.484;11.314;2023-09-19T02:42:35;16.10;;;3.70;;
60257;SDS011;46115;44.484;11.314;2023-09-19T02:46:38;16.70;;;3.75;;
60257;SDS011;46115;44.484;11.314;2023-09-19T02:50:41;16.02;;;3.70;;
60257;SDS011;46115;44.484;11.314;2023-09-19T02:54:45;20.58;;;3.90;;
60257;SDS011;46115;44.484;11.314;2023-09-19T02:58:48;17.38;;;3.75;;
60257;SDS011;46115;44.484;11.314;2023-09-19T03:02:52;16.60;;;3.95;;
60257;SDS011;46115;44.484;11.314;2023-09-19T03:06:56;15.90;;;3.78;;
60257;SDS011;46115;44.484;11.314;2023-09-19T03:11:04;19.80;;;3.67;;
60257;SDS011;46115;44.484;11.314;2023-09-19T03:15:12;15.27;;;3.42;;
60257;SDS011;46115;44.484;11.314;2023-09-19T03:19:17;13.13;;;3.30;;
60257;SDS011;46115;44.484;11.314;2023-09-19T03:23:22;13.48;;;3.45;;
60257;SDS011;46115;44.484;11.314;2023-09-19T03:27:28;16.00;;;3.55;;
60257;SDS011;46115;44.484;11.314;2023-09-19T03:31:31;13.32;;;3.45;;
60257;SDS011;46115;44.484;11.314;2023-09-19T03:35:34;16.95;;;3.75;;
60257;SDS011;46115;44.484;11.314;2023-09-19T03:39:37;16.67;;;3.80;;
60257;SDS011;46115;44.484;11.314;2023-09-19T03:43:42;16.90;;;3.50;;
60257;SDS011;46115;44.484;11.314;2023-09-19T03:47:45;16.77;;;3.60;;
60257;SDS011;46115;44.484;11.314;2023-09-19T03:51:49;15.18;;;3.30;;
60257;SDS011;46115;44.484;11.314;2023-09-19T03:55:52;14.52;;;3.67;;
60257;SDS011;46115;44.484;11.314;2023-09-19T03:59:58;14.00;;;4.20;;
60257;SDS011;46115;44.484;11.314;2023-09-19T04:04:00;16.50;;;3.67;;
60257;SDS011;46115;44.484;11.314;2023-09-19T04:08:10;19.88;;;3.95;;
60257;SDS011;46115;44.484;11.314;2023-09-19T04:12:12;15.35;;;3.60;;
60257;SDS011;46115;44.484;11.314;2023-09-19T04:16:19;18.30;;;3.53;;
60257;SDS011;46115;44.484;11.314;2023-09-19T04:20:21;17.55;;;3.80;;
60257;SDS011;46115;44.484;11.314;2023-09-19T04:24:25;12.45;;;3.88;;
60257;SDS011;46115;44.484;11.314;2023-09-19T04:28:27;16.33;;;3.47;;
60257;SDS011;46115;44.484;11.314;2023-09-19T04:32:31;14.02;;;3.47;;
60257;SDS011;46115;44.484;11.314;2023-09-19T04:36:34;14.35;;;3.72;;
60257;SDS011;46115;44.484;11.314;2023-09-19T04:40:37;15.02;;;3.90;;
60257;SDS011;46115;44.484;11.314;2023-09-19T04:44:40;15.10;;;4.00;;
60257;SDS011;46115;44.484;11.314;2023-09-19T04:48:44;14.77;;;3.58;;
60257;SDS011;46115;44.484;11.314;2023-09-19T04:52:49;20.52;;;3.88;;
60257;SDS011;46115;44.484;11.314;2023-09-19T04:56:52;14.20;;;3.85;;
60257;SDS011;46115;44.484;11.314;2023-09-19T05:00:55;13.90;;;3.60;;
60257;SDS011;46115;44.484;11.314;2023-09-19T05:04:58;15.50;;;3.72;;
60257;SDS011;46115;44.484;11.314;2023-09-19T05:09:01;15.93;;;4.07;;
60257;SDS011;46115;44.484;11.314;2023-09-19T05:13:06;16.98;;;3.75;;
60257;SDS011;46115;44.484;11.314;2023-09-19T05:17:09;13.57;;;3.83;;
60257;SDS011;46115;44.484;11.314;2023-09-19T05:21:13;16.83;;;3.80;;
60257;SDS011;46115;44.484;11.314;2023-09-19T05:25:15;16.80;;;3.72;;
60257;SDS011;46115;44.484;11.314;2023-09-19T05:29:19;15.63;;;4.13;;
60257;SDS011;46115;44.484;11.314;2023-09-19T05:33:21;14.48;;;3.88;;
60257;SDS011;46115;44.484;11.314;2023-09-19T05:37:25;19.88;;;4.25;;
60257;SDS011;46115;44.484;11.314;2023-09-19T05:41:28;16.85;;;3.90;;
60257;SDS011;46115;44.484;11.314;2023-09-19T05:45:30;17.60;;;4.10;;
60257;SDS011;46115;44.484;11.314;2023-09-19T05:49:33;13.68;;;3.50;;
60257;SDS011;46115;44.484;11.314;2023-09-19T05:53:37;12.15;;;3.58;;
60257;SDS011;46115;44.484;11.314;2023-09-19T05:57:39;13.88;;;4.50;;
60257;SDS011;46115;44.484;11.314;2023-09-19T06:01:43;14.93;;;3.45;;
60257;SDS011;46115;44.484;11.314;2023-09-19T06:05:47;15.85;;;3.47;;
60257;SDS011;46115;44.484;11.314;2023-09-19T06:09:51;11.55;;;3.70;;
60257;SDS011;46115;44.484;11.314;2023-09-19T06:13:55;12.60;;;3.55;;
60257;SDS011;46115;44.484;11.314;2023-09-19T06:17:58;12.00;;;3.15;;
60257;SDS011;46115;44.484;11.314;2023-09-19T06:22:03;12.40;;;3.13;;
60257;SDS011;46115;44.484;11.314;2023-09-19T06:26:07;9.82;;;2.85;;
60257;SDS011;46115;44.484;11.314;2023-09-19T06:30:10;10.88;;;2.88;;
60257;SDS011;46115;44.484;11.314;2023-09-19T06:34:14;7.70;;;2.45;;
60257;SDS011;46115;44.484;11.314;2023-09-19T06:38:18;7.88;;;2.63;;
60257;SDS011;46115;44.484;11.314;2023-09-19T06:42:23;11.80;;;2.90;;
60257;SDS011;46115;44.484;11.314;2023-09-19T06:46:25;12.68;;;3.00;;
60257;SDS011;46115;44.484;11.314;2023-09-19T06:50:33;10.30;;;3.03;;
60257;SDS011;46115;44.484;11.314;2023-09-19T06:54:36;12.35;;;2.70;;
60257;SDS011;46115;44.484;11.314;2023-09-19T06:58:42;11.05;;;3.33;;
60257;SDS011;46115;44.484;11.314;2023-09-19T07:02:44;10.93;;;2.85;;
60257;SDS011;46115;44.484;11.314;2023-09-19T07:06:48;11.65;;;3.10;;
60257;SDS011;46115;44.484;11.314;2023-09-19T07:10:52;9.60;;;2.80;;
60257;SDS011;46115;44.484;11.314;2023-09-19T07:14:56;11.23;;;2.85;;
60257;SDS011;46115;44.484;11.314;2023-09-19T07:18:59;14.00;;;2.80;;
60257;SDS011;46115;44.484;11.314;2023-09-19T07:23:03;11.52;;;3.08;;
60257;SDS011;46115;44.484;11.314;2023-09-19T07:27:05;14.10;;;2.95;;
60257;SDS011;46115;44.484;11.314;2023-09-19T07:31:11;12.38;;;3.13;;
60257;SDS011;46115;44.484;11.314;2023-09-19T07:35:15;13.73;;;3.30;;
60257;SDS011;46115;44.484;11.314;2023-09-19T07:39:17;12.77;;;3.08;;
60257;SDS011;46115;44.484;11.314;2023-09-19T07:43:21;14.35;;;3.30;;
60257;SDS011;46115;44.484;11.314;2023-09-19T07:47:25;13.95;;;2.95;;
60257;SDS011;46115;44.484;11.314;2023-09-19T07:51:28;17.10;;;3.72;;
60257;SDS011;46115;44.484;11.314;2023-09-19T07:55:31;9.65;;;2.92;;
60257;SDS011;46115;44.484;11.314;2023-09-19T07:59:34;11.35;;;3.08;;
60257;SDS011;46115;44.484;11.314;2023-09-19T08:03:38;16.30;;;3.10;;
60257;SDS011;46115;44.484;11.314;2023-09-19T08:07:43;11.18;;;3.10;;
60257;SDS011;46115;44.484;11.314;2023-09-19T08:11:49;17.35;;;2.90;;
60257;SDS011;46115;44.484;11.314;2023-09-19T08:15:52;14.50;;;3.20;;
60257;SDS011;46115;44.484;11.314;2023-09-19T08:19:56;13.20;;;3.17;;
60257;SDS011;46115;44.484;11.314;2023-09-19T08:23:58;15.90;;;3.20;;
60257;SDS011;46115;44.484;11.314;2023-09-19T08:28:02;16.00;;;3.15;;
60257;SDS011;46115;44.484;11.314;2023-09-19T08:32:09;11.30;;;3.10;;
60257;SDS011;46115;44.484;11.314;2023-09-19T08:36:13;12.57;;;3.17;;
60257;SDS011;46115;44.484;11.314;2023-09-19T08:40:16;13.52;;;3.30;;
60257;SDS011;46115;44.484;11.314;2023-09-19T08:44:19;16.80;;;3.55;;
60257;SDS011;46115;44.484;11.314;2023-09-19T08:48:23;14.27;;;3.83;;
60257;SDS011;46115;44.484;11.314;2023-09-19T08:52:32;14.43;;;3.13;;
60257;SDS011;46115;44.484;11.314;2023-09-19T08:56:36;13.75;;;3.60;;
60257;SDS011;46115;44.484;11.314;2023-09-19T09:00:40;14.43;;;3.72;;
60257;SDS011;46115;44.484;11.314;2023-09-19T09:04:45;16.13;;;3.70;;
60257;SDS011;46115;44.484;11.314;2023-09-19T09:08:51;15.18;;;3.90;;
60257;SDS011;46115;44.484;11.314;2023-09-19T09:12:53;15.23;;;3.80;;
60257;SDS011;46115;44.484;11.314;2023-09-19T09:16:56;14.13;;;4.20;;
60257;SDS011;46115;44.484;11.314;2023-09-19T09:21:00;16.52;;;4.18;;
60257;SDS011;46115;44.484;11.314;2023-09-19T09:25:04;12.98;;;4.03;;
60257;SDS011;46115;44.484;11.314;2023-09-19T09:29:07;13.68;;;4.25;;
60257;SDS011;46115;44.484;11.314;2023-09-19T09:33:10;12.50;;;4.38;;
60257;SDS011;46115;44.484;11.314;2023-09-19T09:37:14;19.13;;;4.75;;
60257;SDS011;46115;44.484;11.314;2023-09-19T09:41:19;13.90;;;4.60;;
60257;SDS011;46115;44.484;11.314;2023-09-19T09:45:40;13.38;;;4.47;;
60257;SDS011;46115;44.484;11.314;2023-09-19T09:49:49;16.42;;;4.90;;
60257;SDS011;46115;44.484;11.314;2023-09-19T09:53:55;13.35;;;4.35;;
60257;SDS011;46115;44.484;11.314;2023-09-19T09:58:17;14.15;;;4.10;;
60257;SDS011;46115;44.484;11.314;2023-09-19T10:02:25;14.88;;;4.65;;
60257;SDS011;46115;44.484;11.314;2023-09-19T10:06:40;15.55;;;4.40;;
60257;SDS011;46115;44.484;11.314;2023-09-19T10:10:49;14.65;;;4.20;;
60257;SDS011;46115;44.484;11.314;2023-09-19T10:15:06;15.80;;;4.47;;
60257;SDS011;46115;44.484;11.314;2023-09-19T10:19:13;13.13;;;3.97;;
60257;SDS011;46115;44.484;11.314;2023-09-19T10:23:19;17.17;;;4.10;;
60257;SDS011;46115;44.484;11.314;2023-09-19T10:27:24;12.82;;;4.07;;
60257;SDS011;46115;44.484;11.314;2023-09-19T10:31:32;14.05;;;4.03;;
60257;SDS011;46115;44.484;11.314;2023-09-19T10:35:37;17.67;;;4.43;;
60257;SDS011;46115;44.484;11.314;2023-09-19T10:39:42;17.42;;;3.88;;
60257;SDS011;46115;44.484;11.314;2023-09-19T10:43:48;12.55;;;4.07;;
60257;SDS011;46115;44.484;11.314;2023-09-19T10:47:52;14.98;;;4.10;;
60257;SDS011;46115;44.484;11.314;2023-09-19T10:51:56;18.17;;;4.28;;
60257;SDS011;46115;44.484;11.314;2023-09-19T10:56:01;13.55;;;4.13;;
60257;SDS011;46115;44.484;11.314;2023-09-19T11:00:11;13.32;;;3.72;;
60257;SDS011;46115;44.484;11.314;2023-09-19T11:04:26;16.85;;;3.95;;
60257;SDS011;46115;44.484;11.314;2023-09-19T11:08:30;13.68;;;4.50;;
60257;SDS011;46115;44.484;11.314;2023-09-19T11:12:53;16.63;;;5.25;;
60257;SDS011;46115;44.484;11.314;2023-09-19T11:21:55;14.07;;;4.57;;
60257;SDS011;46115;44.484;11.314;2023-09-19T11:25:57;16.33;;;4.18;;
60257;SDS011;46115;44.484;11.314;2023-09-19T11:34:37;15.77;;;5.05;;
60257;SDS011;46115;44.484;11.314;2023-09-19T11:39:00;21.35;;;5.32;;
60257;SDS011;46115;44.484;11.314;2023-09-19T11:43:28;14.30;;;4.43;;
60257;SDS011;46115;44.484;11.314;2023-09-19T11:47:34;16.52;;;4.47;;
60257;SDS011;46115;44.484;11.314;2023-09-19T11:51:40;18.85;;;4.50;;
60257;SDS011;46115;44.484;11.314;2023-09-19T11:55:45;13.65;;;5.13;;
60257;SDS011;46115;44.484;11.314;2023-09-19T11:59:48;11.88;;;4.20;;
60257;SDS011;46115;44.484;11.314;2023-09-19T12:03:55;14.93;;;4.32;;
60257;SDS011;46115;44.484;11.314;2023-09-19T12:07:58;13.52;;;3.92;;
60257;SDS011;46115;44.484;11.314;2023-09-19T12:12:03;15.55;;;4.55;;
60257;SDS011;46115;44.484;11.314;2023-09-19T12:16:10;17.15;;;4.38;;
60257;SDS011;46115;44.484;11.314;2023-09-19T12:20:15;16.30;;;4.63;;
60257;SDS011;46115;44.484;11.314;2023-09-19T12:24:20;13.82;;;4.22;;
60257;SDS011;46115;44.484;11.314;2023-09-19T12:28:24;14.27;;;4.63;;
60257;SDS011;46115;44.484;11.314;2023-09-19T12:32:34;15.70;;;4.43;;
60257;SDS011;46115;44.484;11.314;2023-09-19T12:36:37;11.82;;;4.00;;
60257;SDS011;46115;44.484;11.314;2023-09-19T12:40:40;15.95;;;3.92;;
60257;SDS011;46115;44.484;11.314;2023-09-19T12:44:45;14.43;;;4.63;;
60257;SDS011;46115;44.484;11.314;2023-09-19T12:48:49;13.50;;;4.25;;
60257;SDS011;46115;44.484;11.314;2023-09-19T12:53:08;11.82;;;4.28;;
60257;SDS011;46115;44.484;11.314;2023-09-19T13:01:34;16.23;;;3.97;;
60257;SDS011;46115;44.484;11.314;2023-09-19T13:05:53;11.18;;;4.28;;
60257;SDS011;46115;44.484;11.314;2023-09-19T13:10:03;16.80;;;4.03;;
60257;SDS011;46115;44.484;11.314;2023-09-19T13:18:19;12.75;;;3.88;;
60257;SDS011;46115;44.484;11.314;2023-09-19T13:22:38;16.13;;;4.10;;
60257;SDS011;46115;44.484;11.314;2023-09-19T13:26:42;11.60;;;3.65;;
60257;SDS011;46115;44.484;11.314;2023-09-19T13:30:44;15.80;;;3.90;;
60257;SDS011;46115;44.484;11.314;2023-09-19T13:34:49;11.88;;;3.95;;
60257;SDS011;46115;44.484;11.314;2023-09-19T13:38:52;11.02;;;3.78;;
60257;SDS011;46115;44.484;11.314;2023-09-19T13:42:55;15.88;;;4.00;;
60257;SDS011;46115;44.484;11.314;2023-09-19T13:46:57;15.75;;;3.95;;
60257;SDS011;46115;44.484;11.314;2023-09-19T13:51:04;13.75;;;4.30;;
60257;SDS011;46115;44.484;11.314;2023-09-19T13:55:06;20.52;;;4.00;;
60257;SDS011;46115;44.484;11.314;2023-09-19T13:59:10;13.85;;;3.97;;
60257;SDS011;46115;44.484;11.314;2023-09-19T14:03:12;12.60;;;3.42;;
60257;SDS011;46115;44.484;11.314;2023-09-19T14:07:16;11.70;;;3.95;;
60257;SDS011;46115;44.484;11.314;2023-09-19T14:11:20;14.65;;;4.00;;
60257;SDS011;46115;44.484;11.314;2023-09-19T14:15:23;12.40;;;3.78;;
60257;SDS011;46115;44.484;11.314;2023-09-19T14:19:30;12.05;;;4.20;;
60257;SDS011;46115;44.484;11.314;2023-09-19T14:23:38;10.40;;;3.50;;
60257;SDS011;46115;44.484;11.314;2023-09-19T14:27:40;15.20;;;3.88;;
60257;SDS011;46115;44.484;11.314;2023-09-19T14:31:43;10.32;;;3.50;;
60257;SDS011;46115;44.484;11.314;2023-09-19T14:35:46;12.70;;;3.80;;
60257;SDS011;46115;44.484;11.314;2023-09-19T14:39:50;12.85;;;3.72;;
60257;SDS011;46115;44.484;11.314;2023-09-19T14:43:52;17.73;;;4.28;;
60257;SDS011;46115;44.484;11.314;2023-09-19T14:47:56;10.88;;;3.53;;
60257;SDS011;46115;44.484;11.314;2023-09-19T14:51:58;14.35;;;3.90;;
60257;SDS011;46115;44.484;11.314;2023-09-19T14:56:02;12.20;;;3.80;;
60257;SDS011;46115;44.484;11.314;2023-09-19T15:00:05;12.68;;;3.85;;
60257;SDS011;46115;44.484;11.314;2023-09-19T15:04:12;12.82;;;3.78;;
60257;SDS011;46115;44.484;11.314;2023-09-19T15:08:15;13.98;;;4.07;;
60257;SDS011;46115;44.484;11.314;2023-09-19T15:12:19;14.50;;;4.00;;
60257;SDS011;46115;44.484;11.314;2023-09-19T15:16:22;12.43;;;3.88;;
60257;SDS011;46115;44.484;11.314;2023-09-19T15:20:24;10.85;;;3.88;;
60257;SDS011;46115;44.484;11.314;2023-09-19T15:24:27;12.73;;;3.95;;
60257;SDS011;46115;44.484;11.314;2023-09-19T15:28:31;13.50;;;4.03;;
60257;SDS011;46115;44.484;11.314;2023-09-19T15:32:34;13.13;;;4.00;;
60257;SDS011;46115;44.484;11.314;2023-09-19T15:36:37;14.05;;;4.10;;
60257;SDS011;46115;44.484;11.314;2023-09-19T15:40:45;13.20;;;4.25;;
60257;SDS011;46115;44.484;11.314;2023-09-19T15:44:49;16.98;;;4.32;;
60257;SDS011;46115;44.484;11.314;2023-09-19T15:48:52;11.88;;;3.90;;
60257;SDS011;46115;44.484;11.314;2023-09-19T15:52:55;14.00;;;4.38;;
60257;SDS011;46115;44.484;11.314;2023-09-19T15:56:58;11.43;;;3.67;;
60257;SDS011;46115;44.484;11.314;2023-09-19T16:01:05;15.52;;;4.30;;
60257;SDS011;46115;44.484;11.314;2023-09-19T16:05:09;12.00;;;4.00;;
60257;SDS011;46115;44.484;11.314;2023-09-19T16:09:12;10.85;;;3.80;;
60257;SDS011;46115;44.484;11.314;2023-09-19T16:13:15;14.63;;;4.10;;
60257;SDS011;46115;44.484;11.314;2023-09-19T16:17:19;10.15;;;3.85;;
60257;SDS011;46115;44.484;11.314;2023-09-19T16:21:22;11.95;;;3.88;;
60257;SDS011;46115;44.484;11.314;2023-09-19T16:25:25;9.95;;;4.07;;
60257;SDS011;46115;44.484;11.314;2023-09-19T16:29:28;13.57;;;3.88;;
60257;SDS011;46115;44.484;11.314;2023-09-19T16:33:32;11.45;;;3.85;;
60257;SDS011;46115;44.484;11.314;2023-09-19T16:37:36;15.32;;;4.10;;
60257;SDS011;46115;44.484;11.314;2023-09-19T16:41:39;12.52;;;3.38;;
60257;SDS011;46115;44.484;11.314;2023-09-19T16:45:51;8.95;;;3.17;;
60257;SDS011;46115;44.484;11.314;2023-09-19T16:49:55;7.00;;;2.63;;
60257;SDS011;46115;44.484;11.314;2023-09-19T16:53:58;8.77;;;2.60;;
60257;SDS011;46115;44.484;11.314;2023-09-19T16:58:02;8.30;;;2.78;;
60257;SDS011;46115;44.484;11.314;2023-09-19T17:02:06;8.20;;;2.95;;
60257;SDS011;46115;44.484;11.314;2023-09-19T17:06:11;11.68;;;2.70;;
60257;SDS011;46115;44.484;11.314;2023-09-19T17:10:16;8.63;;;2.90;;
60257;SDS011;46115;44.484;11.314;2023-09-19T17:14:18;4.97;;;2.10;;
60257;SDS011;46115;44.484;11.314;2023-09-19T17:18:21;6.38;;;2.63;;
60257;SDS011;46115;44.484;11.314;2023-09-19T17:22:25;6.95;;;2.00;;
60257;SDS011;46115;44.484;11.314;2023-09-19T17:26:27;7.53;;;2.13;;
60257;SDS011;46115;44.484;11.314;2023-09-19T17:30:30;7.32;;;2.30;;
60257;SDS011;46115;44.484;11.314;2023-09-19T17:34:32;11.10;;;2.97;;
60257;SDS011;46115;44.484;11.314;2023-09-19T17:38:36;10.48;;;3.65;;
60257;SDS011;46115;44.484;11.314;2023-09-19T17:42:39;12.52;;;3.63;;
60257;SDS011;46115;44.484;11.314;2023-09-19T17:46:43;8.48;;;4.00;;
60257;SDS011;46115;44.484;11.314;2023-09-19T17:50:47;9.52;;;3.55;;
60257;SDS011;46115;44.484;11.314;2023-09-19T17:54:52;13.45;;;4.45;;
60257;SDS011;46115;44.484;11.314;2023-09-19T22:06:08;6.07;;;1.60;;
60257;SDS011;46115;44.484;11.314;2023-09-19T22:10:14;3.63;;;1.27;;
60257;SDS011;46115;44.484;11.314;2023-09-19T22:14:17;3.72;;;1.40;;
60257;SDS011;46115;44.484;11.314;2023-09-19T22:18:20;3.85;;;1.20;;
60257;SDS011;46115;44.484;11.314;2023-09-19T22:22:23;3.05;;;1.38;;
60257;SDS011;46115;44.484;11.314;2023-09-19T22:26:26;5.22;;;1.20;;
60257;SDS011;46115;44.484;11.314;2023-09-19T22:30:32;5.40;;;1.30;;
60257;SDS011;46115;44.484;11.314;2023-09-19T22:34:35;2.72;;;1.20;;
60257;SDS011;46115;44.484;11.314;2023-09-19T22:38:39;2.17;;;1.20;;
60257;SDS011;46115;44.484;11.314;2023-09-19T22:42:41;3.63;;;1.00;;
60257;SDS011;46115;44.484;11.314;2023-09-19T22:46:48;3.00;;;1.10;;
60257;SDS011;46115;44.484;11.314;2023-09-19T22:50:51;3.17;;;1.25;;
60257;SDS011;46115;44.484;11.314;2023-09-19T22:55:00;3.58;;;1.20;;
60257;SDS011;46115;44.484;11.314;2023-09-19T22:59:03;3.70;;;1.30;;
60257;SDS011;46115;44.484;11.314;2023-09-19T23:03:06;4.50;;;1.20;;
60257;SDS011;46115;44.484;11.314;2023-09-19T23:07:10;3.40;;;1.33;;
60257;SDS011;46115;44.484;11.314;2023-09-19T23:11:14;3.83;;;1.30;;
60257;SDS011;46115;44.484;11.314;2023-09-19T23:15:19;3.50;;;1.40;;
60257;SDS011;46115;44.484;11.314;2023-09-19T23:19:27;3.08;;;1.10;;
60257;SDS011;46115;44.484;11.314;2023-09-19T23:23:30;3.33;;;1.10;;
60257;SDS011;46115;44.484;11.314;2023-09-19T23:27:36;4.53;;;1.30;;
60257;SDS011;46115;44.484;11.314;2023-09-19T23:31:38;4.43;;;1.30;;
60257;SDS011;46115;44.484;11.314;2023-09-19T23:35:44;3.78;;;1.08;;
60257;SDS011;46115;44.484;11.314;2023-09-19T23:39:47;3.58;;;1.02;;
60257;SDS011;46115;44.484;11.314;2023-09-19T23:43:53;2.70;;;1.10;;
60257;SDS011;46115;44.484;11.314;2023-09-19T23:47:55;4.20;;;1.30;;
60257;SDS011;46115;44.484;11.314;2023-09-19T23:51:58;3.40;;;1.33;;
60257;SDS011;46115;44.484;11.314;2023-09-19T23:56:00;3.85;;;1.17;;
